sensor_id;sensor_type;location;lat;lon;timestamp;temperature;humidity
16511;DHT22;8368;48.772;8.754;2022-12-07T00:01:19;2.50;99.90
16511;DHT22;8368;48.772;8.754;2022-12-07T00:03:46;2.60;99.90
16511;DHT22;8368;48.772;8.754;2022-12-07T00:06:14;2.60;99.90
16511;DHT22;8368;48.772;8.754;2022-12-07T00:08:40;2.50;99.90
16511;DHT22;8368;48.772;8.754;2022-12-07T00:11:13;2.60;99.90
16511;DHT22;8368;48.772;8.754;2022-12-07T00:13:40;2.60;99.90
16511;DHT22;8368;48.772;8.754;2022-12-07T00:16:09;2.50;99.90
16511;DHT22;8368;48.772;8.754;2022-12-07T00:18:35;2.60;99.90
16511;DHT22;8368;48.772;8.754;2022-12-07T00:21:06;2.60;99.90
16511;DHT22;8368;48.772;8.754;2022-12-07T00:23:32;2.60;99.90
16511;DHT22;8368;48.772;8.754;2022-12-07T00:26:12;2.60;99.90
16511;DHT22;8368;48.772;8.754;2022-12-07T00:28:38;2.60;99.90
16511;DHT22;8368;48.772;8.754;2022-12-07T00:31:09;2.60;99.90
16511;DHT22;8368;48.772;8.754;2022-12-07T00:33:35;2.60;99.90
16511;DHT22;8368;48.772;8.754;2022-12-07T00:36:03;2.50;99.90
16511;DHT22;8368;48.772;8.754;2022-12-07T00:38:30;2.50;99.90
16511;DHT22;8368;48.772;8.754;2022-12-07T00:41:04;2.50;99.90
16511;DHT22;8368;48.772;8.754;2022-12-07T00:43:31;2.50;99.90
16511;DHT22;8368;48.772;8.754;2022-12-07T00:45:57;2.40;99.90
16511;DHT22;8368;48.772;8.754;2022-12-07T00:48:23;2.40;99.90
16511;DHT22;8368;48.772;8.754;2022-12-07T00:50:49;2.40;99.90
16511;DHT22;8368;48.772;8.754;2022-12-07T00:53:15;2.40;99.90
16511;DHT22;8368;48.772;8.754;2022-12-07T00:55:41;2.30;99.90
16511;DHT22;8368;48.772;8.754;2022-12-07T00:58:07;2.30;99.90
16511;DHT22;8368;48.772;8.754;2022-12-07T01:00:35;2.30;99.90
16511;DHT22;8368;48.772;8.754;2022-12-07T01:03:02;2.30;99.90
16511;DHT22;8368;48.772;8.754;2022-12-07T01:05:27;2.30;99.90
16511;DHT22;8368;48.772;8.754;2022-12-07T01:07:53;2.30;99.90
16511;DHT22;8368;48.772;8.754;2022-12-07T01:10:18;2.30;99.90
16511;DHT22;8368;48.772;8.754;2022-12-07T01:12:44;2.30;99.90
16511;DHT22;8368;48.772;8.754;2022-12-07T01:15:10;2.30;99.90
16511;DHT22;8368;48.772;8.754;2022-12-07T01:17:35;2.30;99.90
16511;DHT22;8368;48.772;8.754;2022-12-07T01:20:02;2.30;99.90
16511;DHT22;8368;48.772;8.754;2022-12-07T01:22:27;2.30;99.90
16511;DHT22;8368;48.772;8.754;2022-12-07T01:24:53;2.20;99.90
16511;DHT22;8368;48.772;8.754;2022-12-07T01:27:18;2.20;99.90
16511;DHT22;8368;48.772;8.754;2022-12-07T01:29:44;2.20;99.90
16511;DHT22;8368;48.772;8.754;2022-12-07T01:32:10;2.20;99.90
16511;DHT22;8368;48.772;8.754;2022-12-07T01:34:35;2.20;99.90
16511;DHT22;8368;48.772;8.754;2022-12-07T01:37:01;2.20;99.90
16511;DHT22;8368;48.772;8.754;2022-12-07T01:39:26;2.20;99.90
16511;DHT22;8368;48.772;8.754;2022-12-07T01:41:52;2.20;99.90
16511;DHT22;8368;48.772;8.754;2022-12-07T01:46:51;2.20;99.90
16511;DHT22;8368;48.772;8.754;2022-12-07T01:49:23;2.20;99.90
16511;DHT22;8368;48.772;8.754;2022-12-07T01:51:54;2.20;99.90
16511;DHT22;8368;48.772;8.754;2022-12-07T01:54:22;2.10;99.90
16511;DHT22;8368;48.772;8.754;2022-12-07T01:56:51;2.20;99.90
16511;DHT22;8368;48.772;8.754;2022-12-07T01:59:21;2.10;99.90
16511;DHT22;8368;48.772;8.754;2022-12-07T02:01:48;2.20;99.90
16511;DHT22;8368;48.772;8.754;2022-12-07T02:04:14;2.20;99.90
16511;DHT22;8368;48.772;8.754;2022-12-07T02:06:41;2.20;99.90
16511;DHT22;8368;48.772;8.754;2022-12-07T02:09:07;2.20;99.90
16511;DHT22;8368;48.772;8.754;2022-12-07T02:11:33;2.20;99.90
16511;DHT22;8368;48.772;8.754;2022-12-07T02:13:58;2.20;99.90
16511;DHT22;8368;48.772;8.754;2022-12-07T02:19:28;2.20;99.90
16511;DHT22;8368;48.772;8.754;2022-12-07T02:22:18;2.20;99.90
16511;DHT22;8368;48.772;8.754;2022-12-07T02:25:10;2.20;99.90
16511;DHT22;8368;48.772;8.754;2022-12-07T02:27:46;2.20;99.90
16511;DHT22;8368;48.772;8.754;2022-12-07T02:30:14;2.10;99.90
16511;DHT22;8368;48.772;8.754;2022-12-07T02:32:57;2.20;99.90
16511;DHT22;8368;48.772;8.754;2022-12-07T02:35:44;2.20;99.90
16511;DHT22;8368;48.772;8.754;2022-12-07T02:38:18;2.20;99.90
16511;DHT22;8368;48.772;8.754;2022-12-07T02:40:50;2.20;99.90
16511;DHT22;8368;48.772;8.754;2022-12-07T02:43:23;2.10;99.90
16511;DHT22;8368;48.772;8.754;2022-12-07T02:45:51;2.10;99.90
16511;DHT22;8368;48.772;8.754;2022-12-07T02:48:19;2.10;99.90
16511;DHT22;8368;48.772;8.754;2022-12-07T02:50:49;2.10;99.90
16511;DHT22;8368;48.772;8.754;2022-12-07T02:53:36;2.10;99.90
16511;DHT22;8368;48.772;8.754;2022-12-07T02:56:07;2.10;99.90
16511;DHT22;8368;48.772;8.754;2022-12-07T03:12:27;2.10;99.90
16511;DHT22;8368;48.772;8.754;2022-12-07T03:15:04;2.10;99.90
16511;DHT22;8368;48.772;8.754;2022-12-07T03:17:33;2.10;99.90
16511;DHT22;8368;48.772;8.754;2022-12-07T03:20:02;2.10;99.90
16511;DHT22;8368;48.772;8.754;2022-12-07T03:22:31;2.10;99.90
16511;DHT22;8368;48.772;8.754;2022-12-07T03:24:59;2.10;99.90
16511;DHT22;8368;48.772;8.754;2022-12-07T03:27:34;2.10;99.90
16511;DHT22;8368;48.772;8.754;2022-12-07T03:33:14;2.00;99.90
16511;DHT22;8368;48.772;8.754;2022-12-07T03:35:47;2.00;99.90
16511;DHT22;8368;48.772;8.754;2022-12-07T03:38:34;2.00;99.90
16511;DHT22;8368;48.772;8.754;2022-12-07T03:41:13;2.00;99.90
16511;DHT22;8368;48.772;8.754;2022-12-07T03:43:41;2.00;99.90
16511;DHT22;8368;48.772;8.754;2022-12-07T03:48:41;2.00;99.90
16511;DHT22;8368;48.772;8.754;2022-12-07T03:51:17;2.00;99.90
16511;DHT22;8368;48.772;8.754;2022-12-07T03:54:13;2.00;99.90
16511;DHT22;8368;48.772;8.754;2022-12-07T03:56:41;2.00;99.90
16511;DHT22;8368;48.772;8.754;2022-12-07T03:59:07;1.90;99.90
16511;DHT22;8368;48.772;8.754;2022-12-07T04:01:33;1.90;99.90
16511;DHT22;8368;48.772;8.754;2022-12-07T04:03:59;1.90;99.90
16511;DHT22;8368;48.772;8.754;2022-12-07T04:06:24;1.90;99.90
16511;DHT22;8368;48.772;8.754;2022-12-07T04:08:50;1.90;99.90
16511;DHT22;8368;48.772;8.754;2022-12-07T04:11:15;1.80;99.90
16511;DHT22;8368;48.772;8.754;2022-12-07T04:13:41;1.80;99.90
16511;DHT22;8368;48.772;8.754;2022-12-07T04:16:25;1.80;99.90
16511;DHT22;8368;48.772;8.754;2022-12-07T04:18:50;1.70;99.90
16511;DHT22;8368;48.772;8.754;2022-12-07T04:21:16;1.70;99.90
16511;DHT22;8368;48.772;8.754;2022-12-07T04:23:41;1.70;99.90
16511;DHT22;8368;48.772;8.754;2022-12-07T04:26:07;1.80;99.90
16511;DHT22;8368;48.772;8.754;2022-12-07T04:28:32;1.70;99.90
16511;DHT22;8368;48.772;8.754;2022-12-07T04:30:58;1.80;99.90
16511;DHT22;8368;48.772;8.754;2022-12-07T04:33:23;1.70;99.90
16511;DHT22;8368;48.772;8.754;2022-12-07T04:35:49;1.70;99.90
16511;DHT22;8368;48.772;8.754;2022-12-07T04:38:14;1.60;99.90
16511;DHT22;8368;48.772;8.754;2022-12-07T04:40:40;1.50;99.90
16511;DHT22;8368;48.772;8.754;2022-12-07T04:43:05;1.40;99.90
16511;DHT22;8368;48.772;8.754;2022-12-07T04:45:31;1.30;99.90
16511;DHT22;8368;48.772;8.754;2022-12-07T04:47:56;1.30;99.90
16511;DHT22;8368;48.772;8.754;2022-12-07T04:50:22;1.20;99.90
16511;DHT22;8368;48.772;8.754;2022-12-07T04:52:47;1.20;99.90
16511;DHT22;8368;48.772;8.754;2022-12-07T04:55:13;1.20;99.90
16511;DHT22;8368;48.772;8.754;2022-12-07T04:57:38;1.10;99.90
16511;DHT22;8368;48.772;8.754;2022-12-07T05:00:04;1.10;99.90
16511;DHT22;8368;48.772;8.754;2022-12-07T05:02:30;1.10;99.90
16511;DHT22;8368;48.772;8.754;2022-12-07T05:04:56;1.00;99.90
16511;DHT22;8368;48.772;8.754;2022-12-07T05:07:21;1.00;99.90
16511;DHT22;8368;48.772;8.754;2022-12-07T05:09:47;1.00;99.90
16511;DHT22;8368;48.772;8.754;2022-12-07T05:12:12;0.90;99.90
16511;DHT22;8368;48.772;8.754;2022-12-07T05:14:38;0.90;99.90
16511;DHT22;8368;48.772;8.754;2022-12-07T05:17:03;0.90;99.90
16511;DHT22;8368;48.772;8.754;2022-12-07T05:19:29;0.80;99.90
16511;DHT22;8368;48.772;8.754;2022-12-07T05:21:55;0.80;99.90
16511;DHT22;8368;48.772;8.754;2022-12-07T05:24:20;0.80;99.90
16511;DHT22;8368;48.772;8.754;2022-12-07T05:26:46;0.80;99.90
16511;DHT22;8368;48.772;8.754;2022-12-07T05:29:13;0.80;99.90
16511;DHT22;8368;48.772;8.754;2022-12-07T05:31:39;0.80;99.90
16511;DHT22;8368;48.772;8.754;2022-12-07T05:34:04;0.70;99.90
16511;DHT22;8368;48.772;8.754;2022-12-07T05:36:30;0.80;99.90
16511;DHT22;8368;48.772;8.754;2022-12-07T05:38:57;0.80;99.90
16511;DHT22;8368;48.772;8.754;2022-12-07T05:41:22;0.90;99.90
16511;DHT22;8368;48.772;8.754;2022-12-07T05:44:08;0.90;99.90
16511;DHT22;8368;48.772;8.754;2022-12-07T05:46:34;0.90;99.90
16511;DHT22;8368;48.772;8.754;2022-12-07T05:49:00;0.90;99.90
16511;DHT22;8368;48.772;8.754;2022-12-07T05:51:26;0.90;99.90
16511;DHT22;8368;48.772;8.754;2022-12-07T05:53:52;0.90;99.90
16511;DHT22;8368;48.772;8.754;2022-12-07T05:56:17;0.90;99.90
16511;DHT22;8368;48.772;8.754;2022-12-07T05:58:43;0.90;99.90
16511;DHT22;8368;48.772;8.754;2022-12-07T06:01:27;1.00;99.90
16511;DHT22;8368;48.772;8.754;2022-12-07T06:03:53;1.00;99.90
16511;DHT22;8368;48.772;8.754;2022-12-07T06:06:18;1.10;99.90
16511;DHT22;8368;48.772;8.754;2022-12-07T06:08:44;1.10;99.90
16511;DHT22;8368;48.772;8.754;2022-12-07T06:11:10;1.10;99.90
16511;DHT22;8368;48.772;8.754;2022-12-07T06:13:54;1.10;99.90
16511;DHT22;8368;48.772;8.754;2022-12-07T06:16:19;1.20;99.90
16511;DHT22;8368;48.772;8.754;2022-12-07T06:18:45;1.20;99.90
16511;DHT22;8368;48.772;8.754;2022-12-07T06:21:10;1.20;99.90
16511;DHT22;8368;48.772;8.754;2022-12-07T06:23:36;1.20;99.90
16511;DHT22;8368;48.772;8.754;2022-12-07T06:26:02;1.20;99.90
16511;DHT22;8368;48.772;8.754;2022-12-07T06:28:27;1.20;99.90
16511;DHT22;8368;48.772;8.754;2022-12-07T06:31:00;1.20;99.90
16511;DHT22;8368;48.772;8.754;2022-12-07T06:33:27;1.20;99.90
16511;DHT22;8368;48.772;8.754;2022-12-07T06:35:53;1.30;99.90
16511;DHT22;8368;48.772;8.754;2022-12-07T06:38:18;1.30;99.90
16511;DHT22;8368;48.772;8.754;2022-12-07T06:40:44;1.30;99.90
16511;DHT22;8368;48.772;8.754;2022-12-07T06:43:09;1.30;99.90
16511;DHT22;8368;48.772;8.754;2022-12-07T06:45:35;1.30;99.90
16511;DHT22;8368;48.772;8.754;2022-12-07T06:48:01;1.30;99.90
16511;DHT22;8368;48.772;8.754;2022-12-07T06:50:26;1.30;99.90
16511;DHT22;8368;48.772;8.754;2022-12-07T06:52:52;1.30;99.90
16511;DHT22;8368;48.772;8.754;2022-12-07T06:55:17;1.30;99.90
16511;DHT22;8368;48.772;8.754;2022-12-07T06:57:43;1.30;99.90
16511;DHT22;8368;48.772;8.754;2022-12-07T07:00:10;1.40;99.90
16511;DHT22;8368;48.772;8.754;2022-12-07T07:02:35;1.40;99.90
16511;DHT22;8368;48.772;8.754;2022-12-07T07:05:02;1.40;99.90
16511;DHT22;8368;48.772;8.754;2022-12-07T07:07:27;1.40;99.90
16511;DHT22;8368;48.772;8.754;2022-12-07T07:09:53;1.40;99.90
16511;DHT22;8368;48.772;8.754;2022-12-07T07:12:19;1.40;99.90
16511;DHT22;8368;48.772;8.754;2022-12-07T07:14:44;1.50;99.90
16511;DHT22;8368;48.772;8.754;2022-12-07T07:17:10;1.50;99.90
16511;DHT22;8368;48.772;8.754;2022-12-07T07:19:36;1.50;99.90
16511;DHT22;8368;48.772;8.754;2022-12-07T07:22:03;1.50;99.90
16511;DHT22;8368;48.772;8.754;2022-12-07T07:24:28;1.50;99.90
16511;DHT22;8368;48.772;8.754;2022-12-07T07:26:54;1.50;99.90
16511;DHT22;8368;48.772;8.754;2022-12-07T07:29:19;1.50;99.90
16511;DHT22;8368;48.772;8.754;2022-12-07T07:31:45;1.50;99.90
16511;DHT22;8368;48.772;8.754;2022-12-07T07:34:10;1.60;99.90
16511;DHT22;8368;48.772;8.754;2022-12-07T07:36:36;1.60;99.90
16511;DHT22;8368;48.772;8.754;2022-12-07T07:39:02;1.60;99.90
16511;DHT22;8368;48.772;8.754;2022-12-07T07:41:27;1.60;99.90
16511;DHT22;8368;48.772;8.754;2022-12-07T07:43:53;1.60;99.90
16511;DHT22;8368;48.772;8.754;2022-12-07T07:46:18;1.60;99.90
16511;DHT22;8368;48.772;8.754;2022-12-07T07:48:44;1.60;99.90
16511;DHT22;8368;48.772;8.754;2022-12-07T07:51:09;1.70;99.90
16511;DHT22;8368;48.772;8.754;2022-12-07T07:53:35;1.70;99.90
16511;DHT22;8368;48.772;8.754;2022-12-07T07:56:01;1.80;99.90
16511;DHT22;8368;48.772;8.754;2022-12-07T07:58:27;1.80;99.90
16511;DHT22;8368;48.772;8.754;2022-12-07T08:00:52;1.80;99.90
16511;DHT22;8368;48.772;8.754;2022-12-07T08:03:18;1.80;99.90
16511;DHT22;8368;48.772;8.754;2022-12-07T08:05:44;1.80;99.90
16511;DHT22;8368;48.772;8.754;2022-12-07T08:08:09;1.90;99.90
16511;DHT22;8368;48.772;8.754;2022-12-07T08:10:35;1.90;99.90
16511;DHT22;8368;48.772;8.754;2022-12-07T08:13:02;1.90;99.90
16511;DHT22;8368;48.772;8.754;2022-12-07T08:15:38;2.00;99.90
16511;DHT22;8368;48.772;8.754;2022-12-07T08:18:04;2.00;99.90
16511;DHT22;8368;48.772;8.754;2022-12-07T08:20:31;2.10;99.90
16511;DHT22;8368;48.772;8.754;2022-12-07T08:22:58;2.10;99.90
16511;DHT22;8368;48.772;8.754;2022-12-07T08:25:23;2.20;99.90
16511;DHT22;8368;48.772;8.754;2022-12-07T08:27:51;2.20;99.90
16511;DHT22;8368;48.772;8.754;2022-12-07T08:30:17;2.30;99.90
16511;DHT22;8368;48.772;8.754;2022-12-07T08:32:44;2.30;99.90
16511;DHT22;8368;48.772;8.754;2022-12-07T08:35:10;2.30;99.90
16511;DHT22;8368;48.772;8.754;2022-12-07T08:37:36;2.40;99.90
16511;DHT22;8368;48.772;8.754;2022-12-07T08:40:03;2.40;99.90
16511;DHT22;8368;48.772;8.754;2022-12-07T08:42:29;2.40;99.90
16511;DHT22;8368;48.772;8.754;2022-12-07T08:45:05;2.50;99.90
16511;DHT22;8368;48.772;8.754;2022-12-07T08:47:30;2.50;99.90
16511;DHT22;8368;48.772;8.754;2022-12-07T08:49:57;2.60;99.90
16511;DHT22;8368;48.772;8.754;2022-12-07T08:52:29;2.50;99.90
16511;DHT22;8368;48.772;8.754;2022-12-07T08:54:55;2.60;99.90
16511;DHT22;8368;48.772;8.754;2022-12-07T08:57:21;2.50;99.90
16511;DHT22;8368;48.772;8.754;2022-12-07T08:59:46;2.60;99.90
16511;DHT22;8368;48.772;8.754;2022-12-07T09:02:12;2.60;99.90
16511;DHT22;8368;48.772;8.754;2022-12-07T09:04:38;2.60;99.90
16511;DHT22;8368;48.772;8.754;2022-12-07T09:07:04;2.60;99.90
16511;DHT22;8368;48.772;8.754;2022-12-07T09:09:29;2.70;99.90
16511;DHT22;8368;48.772;8.754;2022-12-07T09:11:55;2.70;99.90
16511;DHT22;8368;48.772;8.754;2022-12-07T09:14:21;2.70;99.90
16511;DHT22;8368;48.772;8.754;2022-12-07T09:16:46;2.60;99.90
16511;DHT22;8368;48.772;8.754;2022-12-07T09:19:12;2.60;99.90
16511;DHT22;8368;48.772;8.754;2022-12-07T09:21:37;2.70;99.90
16511;DHT22;8368;48.772;8.754;2022-12-07T09:24:03;2.60;99.90
16511;DHT22;8368;48.772;8.754;2022-12-07T09:26:29;2.70;99.90
16511;DHT22;8368;48.772;8.754;2022-12-07T09:28:54;2.70;99.90
16511;DHT22;8368;48.772;8.754;2022-12-07T09:31:20;2.70;99.90
16511;DHT22;8368;48.772;8.754;2022-12-07T09:33:45;2.70;99.90
16511;DHT22;8368;48.772;8.754;2022-12-07T09:36:11;2.80;99.90
16511;DHT22;8368;48.772;8.754;2022-12-07T09:38:36;2.70;99.90
16511;DHT22;8368;48.772;8.754;2022-12-07T09:41:06;2.80;99.90
16511;DHT22;8368;48.772;8.754;2022-12-07T09:43:35;2.80;99.90
16511;DHT22;8368;48.772;8.754;2022-12-07T09:46:01;2.90;99.90
16511;DHT22;8368;48.772;8.754;2022-12-07T09:48:31;3.00;99.90
16511;DHT22;8368;48.772;8.754;2022-12-07T09:50:59;3.00;99.90
16511;DHT22;8368;48.772;8.754;2022-12-07T09:53:28;3.10;99.90
16511;DHT22;8368;48.772;8.754;2022-12-07T09:55:55;3.20;99.90
16511;DHT22;8368;48.772;8.754;2022-12-07T09:58:25;3.20;99.90
16511;DHT22;8368;48.772;8.754;2022-12-07T10:01:04;3.30;99.90
16511;DHT22;8368;48.772;8.754;2022-12-07T10:03:31;3.40;99.90
16511;DHT22;8368;48.772;8.754;2022-12-07T10:05:57;3.40;99.90
16511;DHT22;8368;48.772;8.754;2022-12-07T10:08:24;3.40;99.90
16511;DHT22;8368;48.772;8.754;2022-12-07T10:10:52;3.50;99.90
16511;DHT22;8368;48.772;8.754;2022-12-07T10:13:21;3.50;99.90
16511;DHT22;8368;48.772;8.754;2022-12-07T10:15:53;3.50;99.90
16511;DHT22;8368;48.772;8.754;2022-12-07T10:21:10;3.50;99.90
16511;DHT22;8368;48.772;8.754;2022-12-07T10:23:38;3.50;99.90
16511;DHT22;8368;48.772;8.754;2022-12-07T10:29:17;3.40;99.90
16511;DHT22;8368;48.772;8.754;2022-12-07T10:31:44;3.40;99.90
16511;DHT22;8368;48.772;8.754;2022-12-07T10:34:26;3.40;99.90
16511;DHT22;8368;48.772;8.754;2022-12-07T10:36:53;3.50;99.90
16511;DHT22;8368;48.772;8.754;2022-12-07T10:39:21;3.50;99.90
16511;DHT22;8368;48.772;8.754;2022-12-07T10:42:00;3.50;99.90
16511;DHT22;8368;48.772;8.754;2022-12-07T10:44:29;3.40;99.90
16511;DHT22;8368;48.772;8.754;2022-12-07T10:47:11;3.50;99.90
16511;DHT22;8368;48.772;8.754;2022-12-07T10:58:23;3.60;99.90
16511;DHT22;8368;48.772;8.754;2022-12-07T11:04:03;3.90;99.90
16511;DHT22;8368;48.772;8.754;2022-12-07T11:06:43;3.90;99.90
16511;DHT22;8368;48.772;8.754;2022-12-07T11:09:24;3.80;99.90
16511;DHT22;8368;48.772;8.754;2022-12-07T11:15:13;3.80;99.90
16511;DHT22;8368;48.772;8.754;2022-12-07T11:18:11;3.60;99.90
16511;DHT22;8368;48.772;8.754;2022-12-07T11:20:54;3.50;99.90
16511;DHT22;8368;48.772;8.754;2022-12-07T11:25:50;3.40;99.90
16511;DHT22;8368;48.772;8.754;2022-12-07T11:33:34;3.40;99.90
16511;DHT22;8368;48.772;8.754;2022-12-07T11:41:51;3.50;99.90
16511;DHT22;8368;48.772;8.754;2022-12-07T11:47:30;3.50;99.90
16511;DHT22;8368;48.772;8.754;2022-12-07T11:50:25;3.40;99.90
16511;DHT22;8368;48.772;8.754;2022-12-07T11:52:53;3.30;99.90
16511;DHT22;8368;48.772;8.754;2022-12-07T11:55:50;3.20;99.90
16511;DHT22;8368;48.772;8.754;2022-12-07T12:03:50;3.20;99.90
16511;DHT22;8368;48.772;8.754;2022-12-07T12:06:16;3.00;99.90
16511;DHT22;8368;48.772;8.754;2022-12-07T12:08:55;3.00;99.90
16511;DHT22;8368;48.772;8.754;2022-12-07T12:22:57;2.70;99.90
16511;DHT22;8368;48.772;8.754;2022-12-07T12:27:50;2.70;99.90
16511;DHT22;8368;48.772;8.754;2022-12-07T12:33:06;2.70;99.90
16511;DHT22;8368;48.772;8.754;2022-12-07T12:35:36;2.70;99.90
16511;DHT22;8368;48.772;8.754;2022-12-07T12:38:31;2.80;99.90
16511;DHT22;8368;48.772;8.754;2022-12-07T12:41:00;2.90;99.90
16511;DHT22;8368;48.772;8.754;2022-12-07T12:43:50;3.00;99.90
16511;DHT22;8368;48.772;8.754;2022-12-07T12:51:58;3.00;99.90
16511;DHT22;8368;48.772;8.754;2022-12-07T12:57:13;3.10;99.90
16511;DHT22;8368;48.772;8.754;2022-12-07T12:59:59;3.10;99.90
16511;DHT22;8368;48.772;8.754;2022-12-07T13:02:32;3.10;99.90
16511;DHT22;8368;48.772;8.754;2022-12-07T13:13:01;3.20;99.90
16511;DHT22;8368;48.772;8.754;2022-12-07T13:21:00;3.50;99.90
16511;DHT22;8368;48.772;8.754;2022-12-07T13:23:29;3.70;99.90
16511;DHT22;8368;48.772;8.754;2022-12-07T13:29:16;4.20;99.90
16511;DHT22;8368;48.772;8.754;2022-12-07T13:31:55;4.40;99.90
16511;DHT22;8368;48.772;8.754;2022-12-07T13:37:02;4.70;99.90
16511;DHT22;8368;48.772;8.754;2022-12-07T13:39:33;4.70;99.90
16511;DHT22;8368;48.772;8.754;2022-12-07T13:42:11;4.60;99.90
16511;DHT22;8368;48.772;8.754;2022-12-07T13:44:40;4.60;99.90
16511;DHT22;8368;48.772;8.754;2022-12-07T13:47:17;4.50;99.90
16511;DHT22;8368;48.772;8.754;2022-12-07T13:49:52;4.40;99.90
16511;DHT22;8368;48.772;8.754;2022-12-07T13:52:26;4.20;99.90
16511;DHT22;8368;48.772;8.754;2022-12-07T13:55:01;4.10;99.90
16511;DHT22;8368;48.772;8.754;2022-12-07T13:57:35;3.90;99.90
16511;DHT22;8368;48.772;8.754;2022-12-07T14:00:15;3.80;99.90
16511;DHT22;8368;48.772;8.754;2022-12-07T14:02:59;3.70;99.90
16511;DHT22;8368;48.772;8.754;2022-12-07T14:05:28;3.50;99.90
16511;DHT22;8368;48.772;8.754;2022-12-07T14:10:56;3.30;99.90
16511;DHT22;8368;48.772;8.754;2022-12-07T14:13:37;3.30;99.90
16511;DHT22;8368;48.772;8.754;2022-12-07T14:18:47;3.20;99.90
16511;DHT22;8368;48.772;8.754;2022-12-07T14:23:39;3.00;99.90
16511;DHT22;8368;48.772;8.754;2022-12-07T14:26:12;2.90;99.90
16511;DHT22;8368;48.772;8.754;2022-12-07T14:28:39;2.80;99.90
16511;DHT22;8368;48.772;8.754;2022-12-07T14:31:16;2.80;99.90
16511;DHT22;8368;48.772;8.754;2022-12-07T14:33:42;2.70;99.90
16511;DHT22;8368;48.772;8.754;2022-12-07T14:36:12;2.70;99.90
16511;DHT22;8368;48.772;8.754;2022-12-07T14:38:38;2.70;99.90
16511;DHT22;8368;48.772;8.754;2022-12-07T14:41:05;2.60;99.90
16511;DHT22;8368;48.772;8.754;2022-12-07T14:43:50;2.60;99.90
16511;DHT22;8368;48.772;8.754;2022-12-07T14:46:16;2.60;99.90
16511;DHT22;8368;48.772;8.754;2022-12-07T14:48:41;2.60;99.90
16511;DHT22;8368;48.772;8.754;2022-12-07T14:51:09;2.60;99.90
16511;DHT22;8368;48.772;8.754;2022-12-07T14:53:40;2.50;99.90
16511;DHT22;8368;48.772;8.754;2022-12-07T14:56:07;2.50;99.90
16511;DHT22;8368;48.772;8.754;2022-12-07T14:58:32;2.40;99.90
16511;DHT22;8368;48.772;8.754;2022-12-07T15:00:59;2.40;99.90
16511;DHT22;8368;48.772;8.754;2022-12-07T15:03:24;2.40;99.90
16511;DHT22;8368;48.772;8.754;2022-12-07T15:05:50;2.40;99.90
16511;DHT22;8368;48.772;8.754;2022-12-07T15:08:16;2.40;99.90
16511;DHT22;8368;48.772;8.754;2022-12-07T15:10:41;2.40;99.90
16511;DHT22;8368;48.772;8.754;2022-12-07T15:13:07;2.40;99.90
16511;DHT22;8368;48.772;8.754;2022-12-07T15:15:53;2.40;99.90
16511;DHT22;8368;48.772;8.754;2022-12-07T15:18:20;2.40;99.90
16511;DHT22;8368;48.772;8.754;2022-12-07T15:20:46;2.30;99.90
16511;DHT22;8368;48.772;8.754;2022-12-07T15:23:13;2.30;99.90
16511;DHT22;8368;48.772;8.754;2022-12-07T15:25:47;2.30;99.90
16511;DHT22;8368;48.772;8.754;2022-12-07T15:28:13;2.30;99.90
16511;DHT22;8368;48.772;8.754;2022-12-07T15:30:39;2.30;99.90
16511;DHT22;8368;48.772;8.754;2022-12-07T15:33:05;2.30;99.90
16511;DHT22;8368;48.772;8.754;2022-12-07T15:35:31;2.30;99.90
16511;DHT22;8368;48.772;8.754;2022-12-07T15:37:57;2.30;99.90
16511;DHT22;8368;48.772;8.754;2022-12-07T15:40:22;2.40;99.90
16511;DHT22;8368;48.772;8.754;2022-12-07T15:42:48;2.40;99.90
16511;DHT22;8368;48.772;8.754;2022-12-07T15:45:13;2.40;99.90
16511;DHT22;8368;48.772;8.754;2022-12-07T15:47:43;2.40;99.90
16511;DHT22;8368;48.772;8.754;2022-12-07T15:50:14;2.40;99.90
16511;DHT22;8368;48.772;8.754;2022-12-07T15:52:40;2.40;99.90
16511;DHT22;8368;48.772;8.754;2022-12-07T15:55:06;2.40;99.90
16511;DHT22;8368;48.772;8.754;2022-12-07T15:57:36;2.40;99.90
16511;DHT22;8368;48.772;8.754;2022-12-07T16:00:03;2.40;99.90
16511;DHT22;8368;48.772;8.754;2022-12-07T16:02:29;2.40;99.90
16511;DHT22;8368;48.772;8.754;2022-12-07T16:04:55;2.40;99.90
16511;DHT22;8368;48.772;8.754;2022-12-07T16:07:20;2.40;99.90
16511;DHT22;8368;48.772;8.754;2022-12-07T16:09:46;2.40;99.90
16511;DHT22;8368;48.772;8.754;2022-12-07T16:12:13;2.50;99.90
16511;DHT22;8368;48.772;8.754;2022-12-07T16:14:39;2.40;99.90
16511;DHT22;8368;48.772;8.754;2022-12-07T16:17:07;2.40;99.90
16511;DHT22;8368;48.772;8.754;2022-12-07T16:19:33;2.40;99.90
16511;DHT22;8368;48.772;8.754;2022-12-07T16:21:59;2.40;99.90
16511;DHT22;8368;48.772;8.754;2022-12-07T16:24:25;2.40;99.90
16511;DHT22;8368;48.772;8.754;2022-12-07T16:26:51;2.50;99.90
16511;DHT22;8368;48.772;8.754;2022-12-07T16:29:18;2.50;99.90
16511;DHT22;8368;48.772;8.754;2022-12-07T16:31:44;2.40;99.90
16511;DHT22;8368;48.772;8.754;2022-12-07T16:34:10;2.40;99.90
16511;DHT22;8368;48.772;8.754;2022-12-07T16:36:36;2.40;99.90
16511;DHT22;8368;48.772;8.754;2022-12-07T16:39:03;2.40;99.90
16511;DHT22;8368;48.772;8.754;2022-12-07T16:41:29;2.40;99.90
16511;DHT22;8368;48.772;8.754;2022-12-07T16:43:55;2.30;99.90
16511;DHT22;8368;48.772;8.754;2022-12-07T16:46:20;2.30;99.90
16511;DHT22;8368;48.772;8.754;2022-12-07T16:48:46;2.30;99.90
16511;DHT22;8368;48.772;8.754;2022-12-07T16:51:13;2.30;99.90
16511;DHT22;8368;48.772;8.754;2022-12-07T16:53:40;2.30;99.90
16511;DHT22;8368;48.772;8.754;2022-12-07T16:56:14;2.30;99.90
16511;DHT22;8368;48.772;8.754;2022-12-07T16:58:40;2.30;99.90
16511;DHT22;8368;48.772;8.754;2022-12-07T17:01:15;2.30;99.90
16511;DHT22;8368;48.772;8.754;2022-12-07T17:03:42;2.30;99.90
16511;DHT22;8368;48.772;8.754;2022-12-07T17:08:38;2.30;99.90
16511;DHT22;8368;48.772;8.754;2022-12-07T17:11:16;2.30;99.90
16511;DHT22;8368;48.772;8.754;2022-12-07T17:13:42;2.30;99.90
16511;DHT22;8368;48.772;8.754;2022-12-07T17:16:27;2.30;99.90
16511;DHT22;8368;48.772;8.754;2022-12-07T17:18:53;2.30;99.90
16511;DHT22;8368;48.772;8.754;2022-12-07T17:21:18;2.30;99.90
16511;DHT22;8368;48.772;8.754;2022-12-07T17:23:44;2.30;99.90
16511;DHT22;8368;48.772;8.754;2022-12-07T17:26:15;2.30;99.90
16511;DHT22;8368;48.772;8.754;2022-12-07T17:28:42;2.30;99.90
16511;DHT22;8368;48.772;8.754;2022-12-07T17:31:10;2.20;99.90
16511;DHT22;8368;48.772;8.754;2022-12-07T17:33:36;2.20;99.90
16511;DHT22;8368;48.772;8.754;2022-12-07T17:36:13;2.10;99.90
16511;DHT22;8368;48.772;8.754;2022-12-07T17:38:39;2.10;99.90
16511;DHT22;8368;48.772;8.754;2022-12-07T17:41:13;2.10;99.90
16511;DHT22;8368;48.772;8.754;2022-12-07T17:43:59;2.10;99.90
16511;DHT22;8368;48.772;8.754;2022-12-07T17:46:24;2.00;99.90
16511;DHT22;8368;48.772;8.754;2022-12-07T17:48:50;1.90;99.90
16511;DHT22;8368;48.772;8.754;2022-12-07T17:51:15;1.90;99.90
16511;DHT22;8368;48.772;8.754;2022-12-07T17:54:00;1.90;99.90
16511;DHT22;8368;48.772;8.754;2022-12-07T17:56:25;1.80;99.90
16511;DHT22;8368;48.772;8.754;2022-12-07T17:58:50;1.80;99.90
16511;DHT22;8368;48.772;8.754;2022-12-07T18:01:16;1.80;99.90
16511;DHT22;8368;48.772;8.754;2022-12-07T18:03:42;1.70;99.90
16511;DHT22;8368;48.772;8.754;2022-12-07T18:06:07;1.70;99.90
16511;DHT22;8368;48.772;8.754;2022-12-07T18:08:36;1.70;99.90
16511;DHT22;8368;48.772;8.754;2022-12-07T18:11:04;1.70;99.90
16511;DHT22;8368;48.772;8.754;2022-12-07T18:13:30;1.70;99.90
16511;DHT22;8368;48.772;8.754;2022-12-07T18:16:08;1.60;99.90